createdAt,value
2023-09-11T00:00:44.118Z,9.05
2023-09-11T00:01:45.587Z,9.27
2023-09-11T00:02:47.406Z,10.85
2023-09-11T00:03:52.217Z,9.63
2023-09-11T00:04:53.671Z,9.32
2023-09-11T00:06:05.239Z,9.07
2023-09-11T00:07:07.174Z,10.15
2023-09-11T00:08:08.580Z,11.38
2023-09-11T00:09:10.093Z,9.68
2023-09-11T00:10:11.552Z,9.40
2023-09-11T00:11:12.967Z,9.38
2023-09-11T00:12:14.397Z,9.35
2023-09-11T00:13:15.818Z,9.07
2023-09-11T00:14:17.202Z,9.48
2023-09-11T00:15:18.678Z,9.00
2023-09-11T00:16:20.146Z,9.68
2023-09-11T00:17:21.594Z,10.00
2023-09-11T00:18:24.800Z,8.48
2023-09-11T00:19:26.244Z,12.15
2023-09-11T00:20:27.650Z,10.10
2023-09-11T00:21:29.143Z,10.15
2023-09-11T00:22:30.546Z,9.60
2023-09-11T00:23:31.975Z,8.82
2023-09-11T00:24:33.350Z,9.82
2023-09-11T00:25:35.249Z,9.75
2023-09-11T00:26:36.734Z,9.50
2023-09-11T00:27:38.528Z,9.18
2023-09-11T00:28:40.240Z,11.70
2023-09-11T00:29:41.854Z,10.82
2023-09-11T00:30:43.329Z,9.13
2023-09-11T00:31:44.773Z,9.77
2023-09-11T00:32:46.210Z,9.07
2023-09-11T00:33:47.656Z,12.93
2023-09-11T00:34:49.429Z,9.80
2023-09-11T00:35:50.809Z,11.43
2023-09-11T00:36:52.256Z,10.45
2023-09-11T00:37:53.725Z,9.40
2023-09-11T00:38:55.179Z,13.05
2023-09-11T00:39:56.561Z,10.10
2023-09-11T00:40:57.915Z,9.43
2023-09-11T00:41:59.432Z,9.75
2023-09-11T00:43:00.864Z,8.77
2023-09-11T00:44:02.348Z,9.10
2023-09-11T00:45:03.838Z,10.48
2023-09-11T00:46:06.669Z,9.77
2023-09-11T00:47:08.107Z,9.60
2023-09-11T00:48:09.871Z,9.88
2023-09-11T00:49:11.340Z,10.77
2023-09-11T00:50:13.317Z,9.30
2023-09-11T00:51:14.699Z,10.60
2023-09-11T00:52:16.083Z,13.13
2023-09-11T00:53:18.158Z,11.77
2023-09-11T00:54:20.947Z,8.73
2023-09-11T00:55:22.633Z,10.07
2023-09-11T00:56:24.120Z,9.80
2023-09-11T00:57:26.534Z,13.93
2023-09-11T00:58:28.345Z,9.88
2023-09-11T00:59:29.819Z,9.15
2023-09-11T01:00:31.638Z,10.63
2023-09-11T01:01:33.197Z,10.88
2023-09-11T01:02:34.787Z,13.80
2023-09-11T01:03:37.092Z,9.95
2023-09-11T01:04:38.937Z,13.20
2023-09-11T01:05:40.874Z,14.60
2023-09-11T01:06:42.398Z,11.45
2023-09-11T01:07:43.819Z,9.57
2023-09-11T01:08:45.272Z,12.68
2023-09-11T01:09:46.692Z,12.55
2023-09-11T01:10:49.191Z,10.55
2023-09-11T01:11:50.667Z,11.00
2023-09-11T01:12:52.180Z,12.30
2023-09-11T01:13:53.894Z,12.93
2023-09-11T01:14:55.355Z,10.52
2023-09-11T01:16:17.822Z,13.73
2023-09-11T01:17:25.519Z,10.73
2023-09-11T01:18:29.788Z,12.32
2023-09-11T01:19:56.682Z,10.88
2023-09-11T01:21:21.985Z,10.75
2023-09-11T01:22:26.371Z,10.50
2023-09-11T01:23:36.990Z,13.10
2023-09-11T01:24:57.288Z,12.55
2023-09-11T01:26:12.985Z,11.05
2023-09-11T01:27:24.112Z,11.05
2023-09-11T01:28:43.781Z,11.27
2023-09-11T01:29:45.712Z,9.93
2023-09-11T01:30:47.222Z,10.60
2023-09-11T01:31:49.203Z,10.10
2023-09-11T01:32:51.461Z,12.23
2023-09-11T01:33:53.676Z,11.10
2023-09-11T01:34:55.114Z,10.38
2023-09-11T01:35:56.559Z,11.38
2023-09-11T01:36:57.997Z,9.05
2023-09-11T01:37:59.732Z,9.70
2023-09-11T01:39:01.624Z,13.50
2023-09-11T01:40:03.216Z,10.35
2023-09-11T01:41:05.159Z,9.90
2023-09-11T01:42:09.551Z,11.32
2023-09-11T01:43:12.654Z,11.38
2023-09-11T01:44:16.719Z,10.75
2023-09-11T01:45:18.430Z,10.65
2023-09-11T01:46:20.077Z,12.18
2023-09-11T01:47:22.649Z,9.82
2023-09-11T01:48:24.275Z,12.43
2023-09-11T01:49:26.288Z,12.50
2023-09-11T01:50:28.728Z,9.93
2023-09-11T01:51:31.660Z,11.02
2023-09-11T01:52:34.431Z,11.15
2023-09-11T01:53:36.034Z,9.02
2023-09-11T01:54:37.708Z,9.50
2023-09-11T01:55:39.403Z,8.88
2023-09-11T01:56:40.836Z,9.82
2023-09-11T01:57:42.319Z,10.45
2023-09-11T01:58:44.178Z,10.20
2023-09-11T01:59:45.582Z,10.80
2023-09-11T02:00:47.058Z,10.35
2023-09-11T02:01:48.480Z,9.25
2023-09-11T02:02:54.174Z,11.20
2023-09-11T02:03:55.893Z,8.75
2023-09-11T02:04:57.434Z,9.13
2023-09-11T02:05:58.914Z,10.23
2023-09-11T02:07:00.400Z,10.35
2023-09-11T02:08:01.812Z,9.60
2023-09-11T02:09:03.621Z,10.70
2023-09-11T02:10:05.155Z,9.27
2023-09-11T02:11:08.941Z,9.32
2023-09-11T02:12:10.395Z,8.85
2023-09-11T02:13:11.930Z,11.85
2023-09-11T02:14:13.335Z,12.93
2023-09-11T02:15:14.770Z,9.80
2023-09-11T02:16:16.202Z,10.93
2023-09-11T02:17:17.706Z,10.43
2023-09-11T02:18:19.233Z,10.05
2023-09-11T02:19:20.802Z,9.95
2023-09-11T02:20:22.428Z,9.65
2023-09-11T02:21:24.275Z,8.90
2023-09-11T02:22:25.869Z,8.52
2023-09-11T02:23:27.411Z,9.88
2023-09-11T02:24:28.929Z,10.15
2023-09-11T02:25:30.361Z,9.48
2023-09-11T02:26:31.792Z,8.82
2023-09-11T02:27:33.190Z,10.27
2023-09-11T02:28:34.619Z,9.45
2023-09-11T02:29:36.147Z,8.98
2023-09-11T02:30:37.565Z,10.52
2023-09-11T02:31:38.964Z,8.75
2023-09-11T02:32:40.477Z,8.80
2023-09-11T02:33:41.964Z,9.45
2023-09-11T02:34:43.402Z,9.02
2023-09-11T02:35:44.892Z,10.13
2023-09-11T02:36:46.389Z,9.85
2023-09-11T02:37:47.771Z,9.18
2023-09-11T02:38:49.291Z,9.65
2023-09-11T02:39:50.857Z,10.05
2023-09-11T02:41:06.943Z,10.80
2023-09-11T02:42:10.193Z,10.82
2023-09-11T02:43:11.784Z,10.65
2023-09-11T02:44:13.317Z,10.32
2023-09-11T02:45:14.668Z,10.10
2023-09-11T02:46:16.069Z,9.15
2023-09-11T02:47:17.446Z,9.02
2023-09-11T02:48:18.882Z,8.90
2023-09-11T02:49:20.813Z,10.50
2023-09-11T02:50:24.206Z,10.13
2023-09-11T02:51:26.947Z,10.85
2023-09-11T02:52:28.337Z,10.15
2023-09-11T02:53:29.816Z,9.23
2023-09-11T02:54:31.204Z,10.68
2023-09-11T02:55:32.606Z,9.50
2023-09-11T02:56:37.051Z,11.50
2023-09-11T02:57:39.098Z,10.75
2023-09-11T02:58:40.497Z,8.65
2023-09-11T02:59:41.893Z,12.38
2023-09-11T03:00:43.308Z,8.57
2023-09-11T03:01:45.914Z,9.80
2023-09-11T03:02:47.689Z,9.25
2023-09-11T03:03:49.304Z,10.02
2023-09-11T03:04:53.647Z,11.65
2023-09-11T03:05:55.797Z,9.05
2023-09-11T03:06:57.216Z,10.77
2023-09-11T03:08:02.103Z,8.75
2023-09-11T03:09:05.729Z,8.88
2023-09-11T03:10:07.812Z,8.73
2023-09-11T03:11:11.083Z,8.82
2023-09-11T03:12:14.145Z,9.07
2023-09-11T03:13:15.548Z,10.80
2023-09-11T03:14:18.304Z,9.57
2023-09-11T03:15:19.736Z,8.25
2023-09-11T03:16:21.212Z,8.77
2023-09-11T03:17:28.673Z,8.70
2023-09-11T03:18:30.180Z,12.10
2023-09-11T03:19:34.030Z,10.43
2023-09-11T03:20:35.450Z,9.13
2023-09-11T03:21:36.827Z,11.15
2023-09-11T03:22:38.189Z,9.15
2023-09-11T03:23:39.802Z,12.15
2023-09-11T03:24:41.267Z,11.50
2023-09-11T03:25:47.034Z,10.50
2023-09-11T03:26:48.957Z,12.05
2023-09-11T03:27:50.404Z,10.77
2023-09-11T03:28:52.621Z,11.60
2023-09-11T03:29:58.371Z,8.38
2023-09-11T03:31:02.489Z,9.10
2023-09-11T03:32:03.975Z,9.32
2023-09-11T03:33:05.697Z,11.10
2023-09-11T03:34:07.291Z,9.40
2023-09-11T03:35:08.966Z,8.65
2023-09-11T03:36:14.063Z,12.77
2023-09-11T03:37:15.483Z,11.38
2023-09-11T03:38:17.625Z,10.38
2023-09-11T03:39:19.051Z,11.13
2023-09-11T03:40:21.526Z,9.07
2023-09-11T03:41:23.006Z,8.95
2023-09-11T03:42:24.639Z,10.07
2023-09-11T03:43:26.140Z,10.48
2023-09-11T03:44:27.641Z,8.70
2023-09-11T03:45:29.275Z,14.52
2023-09-11T03:46:30.738Z,9.45
2023-09-11T03:47:32.449Z,10.95
2023-09-11T03:48:34.158Z,8.85
2023-09-11T03:49:36.083Z,9.48
2023-09-11T03:50:37.475Z,10.10
2023-09-11T03:51:38.897Z,9.60
2023-09-11T03:52:41.320Z,10.90
2023-09-11T03:53:44.371Z,12.05
2023-09-11T03:54:47.447Z,10.15
2023-09-11T03:55:48.874Z,9.23
2023-09-11T03:56:50.701Z,13.85
2023-09-11T03:57:52.589Z,12.75
2023-09-11T03:58:54.043Z,9.48
2023-09-11T03:59:55.853Z,11.88
2023-09-11T04:00:57.340Z,8.68
2023-09-11T04:01:58.752Z,9.00
2023-09-11T04:03:00.381Z,10.98
2023-09-11T04:04:02.016Z,11.07
2023-09-11T04:05:03.699Z,10.55
2023-09-11T04:06:05.186Z,9.70
2023-09-11T04:07:06.698Z,10.35
2023-09-11T04:08:09.598Z,9.35
2023-09-11T04:09:10.948Z,11.32
2023-09-11T04:10:12.390Z,10.30
2023-09-11T04:11:14.426Z,12.38
2023-09-11T04:12:19.375Z,11.88
2023-09-11T04:13:20.906Z,9.07
2023-09-11T04:14:22.364Z,10.93
2023-09-11T04:15:24.077Z,10.40
2023-09-11T04:16:26.730Z,11.57
2023-09-11T04:17:28.308Z,9.18
2023-09-11T04:18:29.801Z,10.25
2023-09-11T04:19:31.330Z,14.38
2023-09-11T04:20:34.742Z,9.10
2023-09-11T04:21:37.780Z,13.77
2023-09-11T04:22:39.184Z,9.30
2023-09-11T04:23:40.603Z,11.73
2023-09-11T04:24:42.260Z,9.73
2023-09-11T04:25:44.916Z,9.48
2023-09-11T04:26:46.620Z,50.97
2023-09-11T04:27:48.458Z,70.45
2023-09-11T04:28:49.859Z,56.75
2023-09-11T04:29:51.345Z,33.55
2023-09-11T04:30:52.855Z,26.33
2023-09-11T04:31:54.849Z,19.50
2023-09-11T04:32:56.505Z,17.03
2023-09-11T04:33:57.979Z,15.07
2023-09-11T04:34:59.323Z,12.90
2023-09-11T04:36:00.756Z,11.37
2023-09-11T04:37:02.147Z,9.50
2023-09-11T04:38:03.640Z,11.23
2023-09-11T04:39:08.056Z,12.40
2023-09-11T04:40:09.842Z,11.75
2023-09-11T04:41:11.438Z,9.38
2023-09-11T04:42:13.076Z,12.43
2023-09-11T04:43:14.431Z,8.80
2023-09-11T04:44:15.960Z,13.50
2023-09-11T04:45:17.491Z,11.18
2023-09-11T04:46:19.047Z,10.85
2023-09-11T04:47:21.539Z,10.70
2023-09-11T04:48:23.351Z,9.60
2023-09-11T04:49:24.858Z,12.75
2023-09-11T04:50:26.374Z,9.93
2023-09-11T04:51:27.740Z,10.93
2023-09-11T04:52:29.143Z,9.23
2023-09-11T04:53:30.667Z,11.07
2023-09-11T04:54:32.088Z,10.20
2023-09-11T04:55:33.614Z,8.93
2023-09-11T04:56:35.157Z,9.43
2023-09-11T04:57:37.921Z,9.60
2023-09-11T04:58:39.478Z,10.87
2023-09-11T04:59:44.717Z,9.52
2023-09-11T05:00:46.721Z,12.48
2023-09-11T05:01:48.306Z,9.40
2023-09-11T05:02:51.619Z,13.40
2023-09-11T05:03:53.280Z,8.85
2023-09-11T05:04:54.880Z,11.33
2023-09-11T05:05:56.388Z,10.20
2023-09-11T05:06:57.914Z,8.93
2023-09-11T05:07:59.498Z,10.07
2023-09-11T05:09:12.059Z,10.63
2023-09-11T05:10:15.922Z,11.82
2023-09-11T05:11:17.809Z,10.82
2023-09-11T05:12:19.235Z,10.30
2023-09-11T05:13:20.579Z,13.37
2023-09-11T05:14:23.545Z,11.23
2023-09-11T05:15:24.966Z,11.20
2023-09-11T05:16:26.462Z,9.40
2023-09-11T05:17:28.049Z,10.90
2023-09-11T05:18:29.606Z,14.05
2023-09-11T05:19:31.052Z,10.30
2023-09-11T05:20:32.516Z,13.80
2023-09-11T05:21:34.045Z,12.40
2023-09-11T05:22:35.465Z,13.70
2023-09-11T05:23:37.242Z,10.57
2023-09-11T05:24:38.757Z,9.77
2023-09-11T05:25:40.111Z,11.63
2023-09-11T05:26:41.643Z,11.77
2023-09-11T05:27:46.015Z,12.40
2023-09-11T05:28:47.391Z,12.68
2023-09-11T05:29:49.106Z,9.17
2023-09-11T05:30:51.101Z,10.43
2023-09-11T05:31:52.562Z,12.13
2023-09-11T05:32:54.033Z,13.55
2023-09-11T05:33:55.616Z,11.40
2023-09-11T05:34:56.991Z,10.25
2023-09-11T05:35:58.664Z,11.23
2023-09-11T05:37:00.023Z,12.30
2023-09-11T05:38:01.432Z,9.70
2023-09-11T05:39:04.053Z,10.63
2023-09-11T05:40:08.227Z,11.30
2023-09-11T05:41:09.614Z,12.18
2023-09-11T05:42:11.996Z,14.27
2023-09-11T05:43:13.500Z,11.48
2023-09-11T05:44:14.846Z,11.50
2023-09-11T05:45:16.270Z,10.93
2023-09-11T05:46:17.786Z,12.27
2023-09-11T05:47:19.335Z,14.48
2023-09-11T05:48:20.872Z,12.02
2023-09-11T05:49:22.464Z,9.13
2023-09-11T05:50:23.882Z,11.90
2023-09-11T05:51:25.232Z,9.35
2023-09-11T05:52:26.676Z,13.18
2023-09-11T05:53:28.216Z,11.95
2023-09-11T05:54:30.680Z,12.55
2023-09-11T05:55:34.471Z,10.30
2023-09-11T05:56:35.880Z,11.10
2023-09-11T05:57:37.324Z,11.60
2023-09-11T05:58:38.983Z,10.25
2023-09-11T05:59:40.727Z,9.05
2023-09-11T06:00:42.135Z,12.50
2023-09-11T06:01:43.616Z,10.60
2023-09-11T06:02:47.264Z,9.57
2023-09-11T06:03:48.881Z,20.95
2023-09-11T06:04:50.614Z,10.88
2023-09-11T06:05:52.059Z,12.32
2023-09-11T06:06:53.484Z,12.15
2023-09-11T06:07:54.995Z,9.95
2023-09-11T06:08:56.420Z,9.07
2023-09-11T06:09:57.868Z,11.05
2023-09-11T06:11:00.792Z,11.57
2023-09-11T06:12:02.190Z,11.65
2023-09-11T06:13:04.094Z,9.57
2023-09-11T06:14:06.304Z,9.57
2023-09-11T06:15:08.013Z,12.32
2023-09-11T06:16:09.590Z,12.48
2023-09-11T06:17:12.916Z,14.18
2023-09-11T06:18:14.361Z,12.98
2023-09-11T06:19:15.988Z,10.30
2023-09-11T06:20:19.706Z,12.52
2023-09-11T06:21:21.335Z,12.98
2023-09-11T06:22:22.783Z,16.13
2023-09-11T06:23:24.139Z,11.25
2023-09-11T06:24:25.511Z,12.48
2023-09-11T06:25:26.958Z,10.70
2023-09-11T06:26:28.449Z,10.50
2023-09-11T06:27:29.846Z,15.02
2023-09-11T06:28:31.666Z,12.13
2023-09-11T06:29:33.046Z,9.07
2023-09-11T06:30:34.738Z,9.60
2023-09-11T06:31:36.446Z,11.38
2023-09-11T06:32:38.053Z,11.07
2023-09-11T06:33:39.863Z,12.50
2023-09-11T06:34:41.299Z,12.43
2023-09-11T06:35:42.720Z,10.23
2023-09-11T06:36:44.065Z,11.93
2023-09-11T06:37:45.426Z,11.10
2023-09-11T06:38:46.859Z,9.80
2023-09-11T06:39:48.302Z,9.05
2023-09-11T06:40:49.760Z,11.85
2023-09-11T06:41:51.163Z,10.15
2023-09-11T06:42:52.553Z,12.80
2023-09-11T06:43:53.909Z,10.77
2023-09-11T06:44:55.464Z,10.95
2023-09-11T06:45:57.785Z,9.43
2023-09-11T06:46:59.265Z,10.07
2023-09-11T06:48:00.747Z,11.25
2023-09-11T06:49:02.258Z,8.55
2023-09-11T06:50:04.050Z,9.80
2023-09-11T06:51:05.468Z,9.13
2023-09-11T06:52:06.876Z,11.55
2023-09-11T06:53:09.526Z,10.57
2023-09-11T06:54:13.437Z,12.57
2023-09-11T06:55:14.841Z,10.20
2023-09-11T06:56:16.312Z,9.73
2023-09-11T06:57:17.744Z,12.80
2023-09-11T06:58:19.183Z,10.73
2023-09-11T06:59:21.115Z,10.23
2023-09-11T07:00:22.624Z,9.40
2023-09-11T07:01:24.045Z,10.50
2023-09-11T07:02:25.447Z,9.70
2023-09-11T07:03:26.916Z,11.38
2023-09-11T07:04:28.557Z,12.98
2023-09-11T07:05:30.096Z,9.02
2023-09-11T07:06:31.546Z,14.18
2023-09-11T07:07:32.907Z,12.05
2023-09-11T07:08:34.445Z,11.82
2023-09-11T07:09:35.820Z,10.00
2023-09-11T07:10:41.391Z,11.23
2023-09-11T07:11:43.351Z,10.90
2023-09-11T07:12:45.121Z,9.85
2023-09-11T07:13:46.994Z,10.10
2023-09-11T07:14:48.442Z,14.07
2023-09-11T07:15:56.862Z,15.43
2023-09-11T07:17:02.010Z,11.90
2023-09-11T07:18:03.569Z,14.43
2023-09-11T07:19:05.025Z,15.45
2023-09-11T07:20:06.858Z,11.95
2023-09-11T07:21:08.363Z,13.70
2023-09-11T07:22:09.851Z,12.75
2023-09-11T07:23:11.623Z,10.50
2023-09-11T07:24:13.467Z,12.13
2023-09-11T07:25:18.106Z,12.05
2023-09-11T07:26:21.650Z,13.82
2023-09-11T07:27:23.241Z,13.70
2023-09-11T07:28:26.806Z,12.43
2023-09-11T07:29:28.947Z,11.45
2023-09-11T07:30:30.767Z,12.43
2023-09-11T07:31:32.708Z,12.52
2023-09-11T07:32:34.158Z,13.23
2023-09-11T07:33:35.655Z,16.02
2023-09-11T07:34:37.092Z,13.98
2023-09-11T07:35:38.727Z,17.42
2023-09-11T07:36:40.351Z,11.65
2023-09-11T07:37:41.751Z,13.68
2023-09-11T07:38:45.760Z,11.80
2023-09-11T07:39:47.296Z,12.38
2023-09-11T07:40:48.689Z,10.55
2023-09-11T07:41:50.170Z,12.40
2023-09-11T07:42:53.979Z,13.55
2023-09-11T07:43:55.565Z,14.73
2023-09-11T07:44:57.074Z,11.55
2023-09-11T07:45:58.482Z,14.73
2023-09-11T07:47:00.114Z,13.77
2023-09-11T07:48:01.636Z,13.93
2023-09-11T07:49:04.251Z,11.82
2023-09-11T07:50:09.187Z,13.48
2023-09-11T07:51:10.607Z,15.23
2023-09-11T07:52:12.015Z,19.20
2023-09-11T07:53:13.392Z,14.63
2023-09-11T07:54:14.746Z,13.93
2023-09-11T07:55:17.716Z,14.90
2023-09-11T07:56:20.653Z,12.82
2023-09-11T07:57:24.667Z,14.88
2023-09-11T07:58:26.030Z,11.70
2023-09-11T07:59:27.379Z,11.52
2023-09-11T08:00:31.889Z,16.63
2023-09-11T08:01:33.557Z,9.82
2023-09-11T08:02:35.346Z,11.60
2023-09-11T08:03:37.018Z,11.27
2023-09-11T08:04:39.389Z,9.52
2023-09-11T08:05:40.900Z,12.80
2023-09-11T08:06:42.411Z,10.32
2023-09-11T08:07:43.893Z,9.95
2023-09-11T08:08:45.591Z,11.00
2023-09-11T08:09:47.768Z,9.23
2023-09-11T08:10:49.562Z,9.65
2023-09-11T08:11:51.407Z,9.60
2023-09-11T08:12:52.938Z,11.05
2023-09-11T08:13:54.706Z,10.57
2023-09-11T08:14:57.106Z,8.50
2023-09-11T08:15:58.558Z,8.20
2023-09-11T08:17:00.023Z,7.25
2023-09-11T08:18:01.554Z,8.80
2023-09-11T08:19:03.087Z,8.00
2023-09-11T08:20:04.884Z,10.40
2023-09-11T08:21:06.489Z,8.20
2023-09-11T08:22:07.963Z,12.27
2023-09-11T08:23:09.342Z,8.70
2023-09-11T08:24:10.957Z,7.50
2023-09-11T08:25:13.628Z,9.75
2023-09-11T08:26:15.269Z,9.40
2023-09-11T08:27:16.822Z,9.40
2023-09-11T08:28:18.266Z,7.50
2023-09-11T08:29:19.704Z,10.38
2023-09-11T08:30:21.283Z,11.63
2023-09-11T08:31:22.742Z,12.10
2023-09-11T08:32:24.235Z,8.43
2023-09-11T08:33:32.027Z,8.32
2023-09-11T08:34:39.088Z,6.95
2023-09-11T08:35:40.491Z,9.32
2023-09-11T08:36:43.658Z,9.10
2023-09-11T08:37:46.369Z,8.52
2023-09-11T08:38:48.610Z,7.15
2023-09-11T08:39:50.289Z,8.30
2023-09-11T08:40:51.699Z,8.27
2023-09-11T08:41:53.368Z,10.43
2023-09-11T08:42:55.946Z,7.60
2023-09-11T08:43:57.354Z,8.18
2023-09-11T08:44:58.701Z,8.30
2023-09-11T08:46:00.724Z,7.35
2023-09-11T08:47:04.397Z,9.88
2023-09-11T08:48:10.078Z,7.22
2023-09-11T08:49:11.903Z,9.32
2023-09-11T08:50:13.493Z,8.00
2023-09-11T08:51:24.060Z,11.60
2023-09-11T08:52:26.095Z,9.60
2023-09-11T08:53:28.750Z,9.82
2023-09-11T08:54:34.539Z,11.18
2023-09-11T08:55:36.060Z,6.75
2023-09-11T08:56:38.464Z,7.68
2023-09-11T08:57:42.030Z,7.43
2023-09-11T08:58:43.841Z,9.68
2023-09-11T08:59:45.953Z,7.15
2023-09-11T09:00:47.615Z,6.72
2023-09-11T09:01:53.865Z,10.50
2023-09-11T09:02:59.229Z,7.35
2023-09-11T09:04:01.757Z,10.60
2023-09-11T09:05:04.362Z,8.48
2023-09-11T09:06:06.016Z,7.28
2023-09-11T09:07:08.066Z,7.90
2023-09-11T09:08:13.615Z,9.80
2023-09-11T09:09:15.155Z,11.07
2023-09-11T09:10:17.187Z,7.75
2023-09-11T09:11:19.227Z,8.32
2023-09-11T09:12:20.778Z,8.60
2023-09-11T09:13:22.914Z,8.18
2023-09-11T09:14:25.516Z,9.35
2023-09-11T09:15:28.147Z,9.50
2023-09-11T09:16:29.546Z,10.75
2023-09-11T09:17:31.030Z,11.90
2023-09-11T09:18:32.701Z,8.93
2023-09-11T09:19:34.687Z,7.78
2023-09-11T09:20:36.596Z,10.23
2023-09-11T09:21:58.007Z,8.05
2023-09-11T09:23:00.272Z,9.85
2023-09-11T09:24:13.903Z,8.43
2023-09-11T09:25:15.482Z,7.75
2023-09-11T09:26:19.402Z,9.13
2023-09-11T09:27:26.073Z,7.75
2023-09-11T09:28:33.295Z,10.18
2023-09-11T09:29:39.082Z,13.60
2023-09-11T09:30:40.569Z,9.27
2023-09-11T09:31:42.522Z,11.30
2023-09-11T09:32:44.113Z,8.75
2023-09-11T09:33:46.037Z,9.77
2023-09-11T09:34:54.618Z,8.80
2023-09-11T09:35:56.130Z,8.32
2023-09-11T09:36:57.652Z,11.25
2023-09-11T09:37:59.394Z,9.75
2023-09-11T09:39:00.986Z,8.30
2023-09-11T09:40:05.260Z,9.80
2023-09-11T09:41:11.375Z,11.75
2023-09-11T09:42:13.321Z,9.93
2023-09-11T09:43:19.087Z,8.88
2023-09-11T09:44:33.743Z,8.98
2023-09-11T09:45:36.997Z,7.82
2023-09-11T09:46:42.350Z,13.90
2023-09-11T09:47:43.816Z,11.98
2023-09-11T09:48:45.641Z,8.25
2023-09-11T09:49:52.987Z,9.85
2023-09-11T09:51:01.500Z,9.65
2023-09-11T09:52:04.124Z,7.50
2023-09-11T09:53:05.641Z,7.30
2023-09-11T09:54:07.178Z,9.68
2023-09-11T09:55:09.866Z,9.75
2023-09-11T09:56:12.325Z,8.57
2023-09-11T09:57:14.485Z,7.32
2023-09-11T09:58:15.932Z,9.68
2023-09-11T09:59:23.182Z,7.53
2023-09-11T10:00:24.555Z,7.88
2023-09-11T10:01:26.073Z,8.13
2023-09-11T10:02:31.235Z,8.60
2023-09-11T10:03:39.852Z,8.07
2023-09-11T10:04:41.596Z,9.45
2023-09-11T10:05:43.056Z,11.20
2023-09-11T10:06:52.612Z,9.95
2023-09-11T10:07:54.085Z,11.52
2023-09-11T10:09:09.262Z,8.68
2023-09-11T10:10:23.895Z,7.43
2023-09-11T10:11:26.918Z,10.63
2023-09-11T10:12:28.320Z,8.82
2023-09-11T10:13:34.613Z,9.93
2023-09-11T10:14:37.232Z,8.27
2023-09-11T10:15:39.374Z,8.98
2023-09-11T10:16:41.345Z,6.43
2023-09-11T10:17:43.432Z,8.30
2023-09-11T10:18:46.692Z,10.02
2023-09-11T10:19:48.460Z,9.32
2023-09-11T10:20:50.501Z,10.50
2023-09-11T10:21:51.890Z,8.45
2023-09-11T10:22:54.310Z,8.45
2023-09-11T10:23:56.276Z,8.07
2023-09-11T10:24:57.662Z,6.63
2023-09-11T10:25:59.984Z,9.00
2023-09-11T10:27:02.159Z,8.45
2023-09-11T10:28:04.903Z,9.48
2023-09-11T10:29:11.649Z,8.15
2023-09-11T10:30:13.814Z,7.90
2023-09-11T10:31:21.377Z,8.93
2023-09-11T10:32:27.277Z,7.38
2023-09-11T10:33:29.162Z,10.48
2023-09-11T10:34:31.041Z,7.68
2023-09-11T10:35:35.383Z,6.75
2023-09-11T10:36:42.319Z,10.20
2023-09-11T10:37:44.638Z,8.35
2023-09-11T10:38:47.384Z,7.85
2023-09-11T10:39:50.530Z,8.07
2023-09-11T10:40:53.288Z,7.82
2023-09-11T10:41:55.000Z,9.23
2023-09-11T10:42:56.471Z,9.30
2023-09-11T10:43:58.134Z,8.00
2023-09-11T10:45:00.351Z,8.07
2023-09-11T10:46:16.853Z,8.13
2023-09-11T10:47:20.235Z,9.57
2023-09-11T10:48:31.863Z,6.68
2023-09-11T10:49:38.099Z,8.82
2023-09-11T10:50:43.591Z,7.22
2023-09-11T10:51:48.837Z,8.00
2023-09-11T10:52:54.059Z,9.18
2023-09-11T10:53:55.789Z,7.00
2023-09-11T10:54:57.321Z,10.98
2023-09-11T10:56:01.218Z,8.90
2023-09-11T10:57:03.052Z,7.25
2023-09-11T10:58:08.087Z,6.88
2023-09-11T10:59:10.670Z,7.22
2023-09-11T11:00:12.572Z,6.20
2023-09-11T11:01:14.750Z,6.60
2023-09-11T11:02:16.241Z,9.25
2023-09-11T11:03:17.950Z,8.80
2023-09-11T11:04:19.630Z,8.15
2023-09-11T11:05:21.220Z,7.07
2023-09-11T11:06:23.258Z,6.35
2023-09-11T11:07:24.894Z,7.45
2023-09-11T11:08:26.535Z,9.70
2023-09-11T11:09:33.938Z,7.88
2023-09-11T11:10:36.197Z,11.73
2023-09-11T11:11:43.388Z,8.10
2023-09-11T11:12:46.036Z,11.48
2023-09-11T11:14:22.642Z,7.72
2023-09-11T11:15:25.127Z,10.85
2023-09-11T11:16:26.697Z,12.85
2023-09-11T11:17:37.254Z,9.32
2023-09-11T11:18:38.833Z,9.45
2023-09-11T11:19:41.368Z,9.25
2023-09-11T11:21:04.837Z,11.57
2023-09-11T11:22:10.897Z,11.15
2023-09-11T11:23:13.385Z,9.48
2023-09-11T11:24:15.963Z,11.90
2023-09-11T11:25:18.122Z,7.75
2023-09-11T11:26:19.653Z,13.43
2023-09-11T11:27:21.300Z,9.63
2023-09-11T11:28:23.544Z,11.10
2023-09-11T11:29:26.028Z,12.90
2023-09-11T11:30:27.807Z,10.40
2023-09-11T11:31:31.181Z,10.52
2023-09-11T11:32:33.815Z,11.23
2023-09-11T11:33:36.117Z,8.95
2023-09-11T11:34:39.106Z,7.82
2023-09-11T11:35:42.139Z,11.90
2023-09-11T11:36:45.645Z,7.70
2023-09-11T11:37:47.360Z,8.82
2023-09-11T11:38:53.315Z,13.60
2023-09-11T11:39:54.739Z,15.07
2023-09-11T11:40:56.221Z,12.38
2023-09-11T11:41:59.848Z,13.93
2023-09-11T11:43:01.410Z,12.10
2023-09-11T11:44:05.991Z,10.50
2023-09-11T11:45:07.972Z,15.15
2023-09-11T11:46:10.612Z,10.95
2023-09-11T11:47:12.702Z,9.27
2023-09-11T11:48:17.073Z,13.88
2023-09-11T11:49:20.400Z,18.80
2023-09-11T11:50:22.671Z,10.77
2023-09-11T11:51:28.058Z,10.52
2023-09-11T11:52:29.463Z,11.02
2023-09-11T11:53:31.822Z,11.60
2023-09-11T11:54:34.180Z,11.27
2023-09-11T11:55:35.563Z,11.23
2023-09-11T11:56:36.948Z,9.88
2023-09-11T11:57:39.147Z,10.18
2023-09-11T11:58:40.885Z,7.78
2023-09-11T11:59:42.907Z,10.80
2023-09-11T12:01:00.829Z,9.75
2023-09-11T12:02:02.344Z,11.68
2023-09-11T12:03:04.924Z,11.70
2023-09-11T12:04:06.857Z,8.73
2023-09-11T12:05:12.649Z,10.07
2023-09-11T12:06:14.797Z,10.05
2023-09-11T12:07:16.618Z,9.30
2023-09-11T12:08:18.113Z,9.82
2023-09-11T12:09:20.029Z,7.35
2023-09-11T12:10:21.544Z,11.40
2023-09-11T12:11:24.208Z,8.40
2023-09-11T12:12:25.715Z,10.02
2023-09-11T12:13:43.005Z,13.10
2023-09-11T12:14:53.362Z,11.07
2023-09-11T12:15:55.803Z,10.88
2023-09-11T12:16:57.390Z,11.45
2023-09-11T12:17:59.102Z,10.57
2023-09-11T12:19:00.672Z,11.02
2023-09-11T12:20:12.644Z,10.98
2023-09-11T12:21:14.234Z,9.73
2023-09-11T12:22:15.782Z,10.23
2023-09-11T12:23:17.352Z,11.20
2023-09-11T12:24:22.397Z,10.20
2023-09-11T12:25:25.649Z,8.35
2023-09-11T12:26:28.021Z,8.63
2023-09-11T12:27:29.440Z,9.45
2023-09-11T12:28:31.219Z,7.80
2023-09-11T12:29:33.730Z,11.93
2023-09-11T12:30:35.728Z,12.30
2023-09-11T12:31:37.382Z,12.05
2023-09-11T12:32:39.502Z,8.80
2023-09-11T12:33:41.063Z,11.43
2023-09-11T12:34:43.502Z,9.38
2023-09-11T12:35:44.952Z,9.77
2023-09-11T12:36:46.407Z,9.80
2023-09-11T12:37:47.875Z,11.35
2023-09-11T12:38:52.471Z,9.45
2023-09-11T12:39:54.149Z,7.03
2023-09-11T12:40:58.298Z,10.27
2023-09-11T12:42:00.157Z,13.73
2023-09-11T12:43:01.579Z,10.77
2023-09-11T12:44:03.889Z,10.35
2023-09-11T12:45:06.210Z,10.93
2023-09-11T12:46:07.727Z,8.57
2023-09-11T12:47:09.265Z,13.50
2023-09-11T12:48:11.201Z,10.48
2023-09-11T12:49:12.677Z,9.52
2023-09-11T12:50:14.154Z,10.85
2023-09-11T12:51:16.453Z,9.75
2023-09-11T12:52:22.520Z,9.90
2023-09-11T12:53:23.937Z,10.63
2023-09-11T12:54:26.110Z,10.75
2023-09-11T12:55:28.102Z,13.18
2023-09-11T12:56:30.250Z,11.90
2023-09-11T12:57:31.611Z,9.52
2023-09-11T12:58:35.383Z,9.75
2023-09-11T12:59:36.764Z,9.30
2023-09-11T13:00:44.146Z,10.52
2023-09-11T13:01:45.701Z,9.00
2023-09-11T13:02:47.713Z,12.30
2023-09-11T13:03:49.261Z,7.97
2023-09-11T13:04:50.731Z,9.82
2023-09-11T13:05:52.111Z,11.60
2023-09-11T13:06:53.635Z,11.40
2023-09-11T13:07:55.123Z,7.53
2023-09-11T13:08:57.466Z,10.35
2023-09-11T13:09:58.892Z,8.98
2023-09-11T13:11:00.253Z,7.72
2023-09-11T13:12:01.833Z,9.82
2023-09-11T13:13:04.686Z,8.40
2023-09-11T13:14:15.477Z,8.95
2023-09-11T13:15:18.172Z,8.40
2023-09-11T13:16:19.666Z,12.15
2023-09-11T13:17:21.151Z,12.57
2023-09-11T13:18:22.696Z,9.73
2023-09-11T13:19:24.743Z,10.95
2023-09-11T13:20:26.336Z,13.40
2023-09-11T13:21:27.714Z,7.90
2023-09-11T13:22:29.167Z,9.93
2023-09-11T13:23:30.662Z,8.88
2023-09-11T13:24:32.182Z,10.75
2023-09-11T13:25:33.654Z,7.78
2023-09-11T13:26:35.097Z,11.25
2023-09-11T13:27:37.630Z,11.43
2023-09-11T13:28:39.405Z,9.25
2023-09-11T13:29:40.804Z,9.30
2023-09-11T13:30:42.265Z,9.50
2023-09-11T13:31:43.712Z,13.50
2023-09-11T13:32:46.835Z,7.80
2023-09-11T13:33:48.526Z,8.52
2023-09-11T13:34:49.970Z,9.90
2023-09-11T13:35:51.643Z,8.77
2023-09-11T13:36:59.400Z,8.30
2023-09-11T13:38:03.505Z,8.48
2023-09-11T13:39:05.498Z,8.10
2023-09-11T13:40:07.482Z,5.93